Terminal Aerodrome Forecast
Issued by NWS

Home | Current Version | Previous Version | Text Only | Print | Product List | Glossary On
Versions: 1 2 3 4 5 6 7 8 9 10 11 12 13 14 15 16 17 18 19
000
FTUS45 KRIW 261136
TAFRKS
TAF
KRKS 261136Z 2612/2712 VRB06KT P6SM SCT090
     FM261800 30008KT P6SM SCT050 BKN090
     FM270100 35010KT P6SM VCSH SCT030 BKN040
     FM270900 VRB06KT P6SM SCT040 BKN070=

USA.gov is the U.S. government's official web portal to all federal, state and local government web resources and services.